sensor_id;sensor_type;location;lat;lon;timestamp;P1;durP1;ratioP1;P2;durP2;ratioP2
53646;SDS011;39550;52.230;5.194;2023-08-01T00:14:02;5.78;;;2.78;;
53646;SDS011;39550;52.230;5.194;2023-08-01T00:20:50;6.60;;;2.70;;
53646;SDS011;39550;52.230;5.194;2023-08-01T00:23:53;5.30;;;2.90;;
53646;SDS011;39550;52.230;5.194;2023-08-01T00:26:21;5.30;;;2.67;;
53646;SDS011;39550;52.230;5.194;2023-08-01T00:28:47;6.75;;;2.95;;
53646;SDS011;39550;52.230;5.194;2023-08-01T00:31:12;5.90;;;2.92;;
53646;SDS011;39550;52.230;5.194;2023-08-01T00:33:37;5.47;;;2.72;;
53646;SDS011;39550;52.230;5.194;2023-08-01T00:36:03;5.00;;;3.10;;
53646;SDS011;39550;52.230;5.194;2023-08-01T00:38:33;6.82;;;3.33;;
53646;SDS011;39550;52.230;5.194;2023-08-01T00:40:59;5.65;;;2.90;;
53646;SDS011;39550;52.230;5.194;2023-08-01T00:43:24;4.78;;;2.70;;
53646;SDS011;39550;52.230;5.194;2023-08-01T00:45:49;7.35;;;2.85;;
53646;SDS011;39550;52.230;5.194;2023-08-01T00:48:15;6.07;;;2.92;;
53646;SDS011;39550;52.230;5.194;2023-08-01T00:50:40;5.68;;;3.03;;
53646;SDS011;39550;52.230;5.194;2023-08-01T00:53:06;5.75;;;2.90;;
53646;SDS011;39550;52.230;5.194;2023-08-01T00:55:31;6.10;;;3.08;;
53646;SDS011;39550;52.230;5.194;2023-08-01T00:57:57;5.07;;;3.00;;
53646;SDS011;39550;52.230;5.194;2023-08-01T01:00:23;5.43;;;2.80;;
53646;SDS011;39550;52.230;5.194;2023-08-01T01:02:48;5.50;;;2.85;;
53646;SDS011;39550;52.230;5.194;2023-08-01T01:05:14;5.22;;;2.80;;
53646;SDS011;39550;52.230;5.194;2023-08-01T01:07:40;6.28;;;3.40;;
53646;SDS011;39550;52.230;5.194;2023-08-01T01:10:06;4.68;;;2.90;;
53646;SDS011;39550;52.230;5.194;2023-08-01T01:12:32;5.55;;;2.75;;
53646;SDS011;39550;52.230;5.194;2023-08-01T01:14:59;6.70;;;3.17;;
53646;SDS011;39550;52.230;5.194;2023-08-01T01:17:25;5.53;;;2.90;;
53646;SDS011;39550;52.230;5.194;2023-08-01T01:19:50;4.95;;;2.88;;
53646;SDS011;39550;52.230;5.194;2023-08-01T01:22:16;5.32;;;3.13;;
53646;SDS011;39550;52.230;5.194;2023-08-01T01:24:42;6.18;;;3.10;;
53646;SDS011;39550;52.230;5.194;2023-08-01T01:27:08;4.70;;;2.80;;
53646;SDS011;39550;52.230;5.194;2023-08-01T01:29:34;5.72;;;3.08;;
53646;SDS011;39550;52.230;5.194;2023-08-01T01:32:00;5.75;;;3.10;;
53646;SDS011;39550;52.230;5.194;2023-08-01T01:34:27;5.70;;;3.05;;
53646;SDS011;39550;52.230;5.194;2023-08-01T01:36:53;5.38;;;2.95;;
53646;SDS011;39550;52.230;5.194;2023-08-01T01:39:19;5.28;;;2.85;;
53646;SDS011;39550;52.230;5.194;2023-08-01T01:41:45;5.80;;;3.20;;
53646;SDS011;39550;52.230;5.194;2023-08-01T01:44:10;8.65;;;3.25;;
53646;SDS011;39550;52.230;5.194;2023-08-01T01:46:36;4.70;;;2.95;;
53646;SDS011;39550;52.230;5.194;2023-08-01T01:49:01;5.43;;;3.13;;
53646;SDS011;39550;52.230;5.194;2023-08-01T01:51:27;5.53;;;3.20;;
53646;SDS011;39550;52.230;5.194;2023-08-01T01:53:53;7.07;;;3.47;;
53646;SDS011;39550;52.230;5.194;2023-08-01T01:56:18;6.30;;;3.65;;
53646;SDS011;39550;52.230;5.194;2023-08-01T01:58:44;7.38;;;3.60;;
53646;SDS011;39550;52.230;5.194;2023-08-01T02:01:09;5.32;;;3.15;;
53646;SDS011;39550;52.230;5.194;2023-08-01T02:03:34;5.82;;;3.30;;
53646;SDS011;39550;52.230;5.194;2023-08-01T02:06:01;4.70;;;2.80;;
53646;SDS011;39550;52.230;5.194;2023-08-01T02:08:28;5.72;;;3.35;;
53646;SDS011;39550;52.230;5.194;2023-08-01T02:10:54;5.85;;;3.30;;
53646;SDS011;39550;52.230;5.194;2023-08-01T02:13:20;5.68;;;3.00;;
53646;SDS011;39550;52.230;5.194;2023-08-01T02:15:45;5.68;;;3.17;;
53646;SDS011;39550;52.230;5.194;2023-08-01T02:18:11;6.55;;;3.20;;
53646;SDS011;39550;52.230;5.194;2023-08-01T02:20:36;5.97;;;3.72;;
53646;SDS011;39550;52.230;5.194;2023-08-01T02:23:02;5.53;;;3.20;;
53646;SDS011;39550;52.230;5.194;2023-08-01T02:25:28;7.45;;;3.22;;
53646;SDS011;39550;52.230;5.194;2023-08-01T02:27:53;7.22;;;3.35;;
53646;SDS011;39550;52.230;5.194;2023-08-01T02:30:18;6.75;;;3.13;;
53646;SDS011;39550;52.230;5.194;2023-08-01T02:32:44;5.97;;;3.30;;
53646;SDS011;39550;52.230;5.194;2023-08-01T02:35:09;5.75;;;3.40;;
53646;SDS011;39550;52.230;5.194;2023-08-01T02:37:35;5.43;;;3.20;;
53646;SDS011;39550;52.230;5.194;2023-08-01T02:40:01;6.53;;;3.22;;
53646;SDS011;39550;52.230;5.194;2023-08-01T02:42:35;6.88;;;3.53;;
53646;SDS011;39550;52.230;5.194;2023-08-01T02:45:00;6.03;;;3.40;;
53646;SDS011;39550;52.230;5.194;2023-08-01T02:47:26;6.35;;;3.60;;
53646;SDS011;39550;52.230;5.194;2023-08-01T02:49:54;6.60;;;3.33;;
53646;SDS011;39550;52.230;5.194;2023-08-01T02:52:19;6.13;;;3.33;;
53646;SDS011;39550;52.230;5.194;2023-08-01T02:54:44;5.68;;;3.40;;
53646;SDS011;39550;52.230;5.194;2023-08-01T02:57:10;6.00;;;3.58;;
53646;SDS011;39550;52.230;5.194;2023-08-01T02:59:35;6.55;;;3.78;;
53646;SDS011;39550;52.230;5.194;2023-08-01T03:02:01;7.63;;;3.45;;
53646;SDS011;39550;52.230;5.194;2023-08-01T03:04:27;6.05;;;3.53;;
53646;SDS011;39550;52.230;5.194;2023-08-01T03:06:52;6.53;;;3.38;;
53646;SDS011;39550;52.230;5.194;2023-08-01T03:09:17;5.72;;;3.60;;
53646;SDS011;39550;52.230;5.194;2023-08-01T03:11:43;5.57;;;3.35;;
53646;SDS011;39550;52.230;5.194;2023-08-01T03:14:11;5.43;;;3.33;;
53646;SDS011;39550;52.230;5.194;2023-08-01T03:16:36;6.60;;;4.07;;
53646;SDS011;39550;52.230;5.194;2023-08-01T03:19:02;6.45;;;3.53;;
53646;SDS011;39550;52.230;5.194;2023-08-01T03:21:33;6.43;;;3.88;;
53646;SDS011;39550;52.230;5.194;2023-08-01T03:23:59;5.35;;;3.22;;
53646;SDS011;39550;52.230;5.194;2023-08-01T03:26:28;7.85;;;3.42;;
53646;SDS011;39550;52.230;5.194;2023-08-01T03:28:54;6.85;;;3.53;;
53646;SDS011;39550;52.230;5.194;2023-08-01T03:31:20;6.63;;;3.13;;
53646;SDS011;39550;52.230;5.194;2023-08-01T03:33:47;6.05;;;3.45;;
53646;SDS011;39550;52.230;5.194;2023-08-01T03:36:12;6.93;;;3.80;;
53646;SDS011;39550;52.230;5.194;2023-08-01T03:38:38;7.00;;;3.20;;
53646;SDS011;39550;52.230;5.194;2023-08-01T03:41:04;6.47;;;2.95;;
53646;SDS011;39550;52.230;5.194;2023-08-01T03:43:29;7.43;;;3.30;;
53646;SDS011;39550;52.230;5.194;2023-08-01T03:45:55;8.23;;;3.55;;
53646;SDS011;39550;52.230;5.194;2023-08-01T03:48:20;5.38;;;3.03;;
53646;SDS011;39550;52.230;5.194;2023-08-01T03:50:46;7.10;;;3.30;;
53646;SDS011;39550;52.230;5.194;2023-08-01T03:53:11;7.38;;;3.15;;
53646;SDS011;39550;52.230;5.194;2023-08-01T03:55:37;5.35;;;3.35;;
53646;SDS011;39550;52.230;5.194;2023-08-01T03:58:02;6.75;;;3.40;;
53646;SDS011;39550;52.230;5.194;2023-08-01T04:00:28;5.40;;;3.25;;
53646;SDS011;39550;52.230;5.194;2023-08-01T04:02:57;5.85;;;2.95;;
53646;SDS011;39550;52.230;5.194;2023-08-01T04:05:26;7.05;;;3.35;;
53646;SDS011;39550;52.230;5.194;2023-08-01T04:07:54;7.00;;;3.50;;
53646;SDS011;39550;52.230;5.194;2023-08-01T04:10:22;7.22;;;3.58;;
53646;SDS011;39550;52.230;5.194;2023-08-01T04:12:48;5.80;;;3.28;;
53646;SDS011;39550;52.230;5.194;2023-08-01T04:15:14;6.80;;;3.80;;
53646;SDS011;39550;52.230;5.194;2023-08-01T04:17:42;6.90;;;3.58;;
53646;SDS011;39550;52.230;5.194;2023-08-01T04:20:08;5.57;;;3.20;;
53646;SDS011;39550;52.230;5.194;2023-08-01T04:22:34;6.82;;;3.30;;
53646;SDS011;39550;52.230;5.194;2023-08-01T04:25:00;6.38;;;3.60;;
53646;SDS011;39550;52.230;5.194;2023-08-01T04:27:27;5.00;;;3.20;;
53646;SDS011;39550;52.230;5.194;2023-08-01T04:29:52;5.50;;;3.55;;
53646;SDS011;39550;52.230;5.194;2023-08-01T04:32:19;6.38;;;3.50;;
53646;SDS011;39550;52.230;5.194;2023-08-01T04:34:47;6.35;;;3.15;;
53646;SDS011;39550;52.230;5.194;2023-08-01T04:37:15;6.72;;;3.17;;
53646;SDS011;39550;52.230;5.194;2023-08-01T04:39:40;6.07;;;3.70;;
53646;SDS011;39550;52.230;5.194;2023-08-01T04:42:06;6.10;;;3.38;;
53646;SDS011;39550;52.230;5.194;2023-08-01T04:44:32;8.20;;;3.42;;
53646;SDS011;39550;52.230;5.194;2023-08-01T04:47:03;6.10;;;3.50;;
53646;SDS011;39550;52.230;5.194;2023-08-01T04:49:34;5.65;;;3.40;;
53646;SDS011;39550;52.230;5.194;2023-08-01T04:51:59;7.35;;;3.90;;
53646;SDS011;39550;52.230;5.194;2023-08-01T04:54:25;6.28;;;3.60;;
53646;SDS011;39550;52.230;5.194;2023-08-01T04:56:53;6.03;;;3.72;;
53646;SDS011;39550;52.230;5.194;2023-08-01T04:59:19;7.53;;;4.20;;
53646;SDS011;39550;52.230;5.194;2023-08-01T05:01:47;8.75;;;4.03;;
53646;SDS011;39550;52.230;5.194;2023-08-01T05:04:13;8.27;;;4.00;;
53646;SDS011;39550;52.230;5.194;2023-08-01T05:06:38;9.60;;;4.63;;
53646;SDS011;39550;52.230;5.194;2023-08-01T05:09:07;6.88;;;3.65;;
53646;SDS011;39550;52.230;5.194;2023-08-01T05:11:42;7.30;;;4.30;;
53646;SDS011;39550;52.230;5.194;2023-08-01T05:14:10;7.90;;;4.13;;
53646;SDS011;39550;52.230;5.194;2023-08-01T05:16:38;8.63;;;3.75;;
53646;SDS011;39550;52.230;5.194;2023-08-01T05:19:03;8.23;;;4.22;;
53646;SDS011;39550;52.230;5.194;2023-08-01T05:21:29;7.55;;;4.10;;
53646;SDS011;39550;52.230;5.194;2023-08-01T05:23:54;6.97;;;3.60;;
53646;SDS011;39550;52.230;5.194;2023-08-01T05:26:22;7.68;;;4.30;;
53646;SDS011;39550;52.230;5.194;2023-08-01T05:31:31;8.45;;;5.10;;
53646;SDS011;39550;52.230;5.194;2023-08-01T05:33:56;6.93;;;4.20;;
53646;SDS011;39550;52.230;5.194;2023-08-01T05:36:24;10.30;;;4.25;;
53646;SDS011;39550;52.230;5.194;2023-08-01T05:39:01;9.20;;;4.80;;
53646;SDS011;39550;52.230;5.194;2023-08-01T05:41:27;8.30;;;4.50;;
53646;SDS011;39550;52.230;5.194;2023-08-01T05:43:54;6.95;;;4.00;;
53646;SDS011;39550;52.230;5.194;2023-08-01T05:46:20;7.82;;;4.43;;
53646;SDS011;39550;52.230;5.194;2023-08-01T05:48:55;7.75;;;3.67;;
53646;SDS011;39550;52.230;5.194;2023-08-01T05:51:20;9.82;;;4.40;;
53646;SDS011;39550;52.230;5.194;2023-08-01T05:53:45;11.18;;;4.65;;
53646;SDS011;39550;52.230;5.194;2023-08-01T05:56:13;11.77;;;4.93;;
53646;SDS011;39550;52.230;5.194;2023-08-01T05:58:42;11.05;;;4.60;;
53646;SDS011;39550;52.230;5.194;2023-08-01T06:01:07;9.37;;;4.60;;
53646;SDS011;39550;52.230;5.194;2023-08-01T06:03:35;10.88;;;4.50;;
53646;SDS011;39550;52.230;5.194;2023-08-01T06:06:03;7.13;;;4.20;;
53646;SDS011;39550;52.230;5.194;2023-08-01T06:08:29;9.80;;;5.20;;
53646;SDS011;39550;52.230;5.194;2023-08-01T06:10:55;7.50;;;4.03;;
53646;SDS011;39550;52.230;5.194;2023-08-01T06:13:23;12.30;;;4.68;;
53646;SDS011;39550;52.230;5.194;2023-08-01T06:15:48;8.07;;;4.45;;
53646;SDS011;39550;52.230;5.194;2023-08-01T06:18:14;13.50;;;5.13;;
53646;SDS011;39550;52.230;5.194;2023-08-01T06:20:39;12.13;;;4.95;;
53646;SDS011;39550;52.230;5.194;2023-08-01T06:23:08;13.97;;;5.33;;
53646;SDS011;39550;52.230;5.194;2023-08-01T06:25:33;9.02;;;4.45;;
53646;SDS011;39550;52.230;5.194;2023-08-01T06:27:59;8.35;;;4.20;;
53646;SDS011;39550;52.230;5.194;2023-08-01T06:30:24;8.70;;;4.18;;
53646;SDS011;39550;52.230;5.194;2023-08-01T06:32:52;11.90;;;4.43;;
53646;SDS011;39550;52.230;5.194;2023-08-01T06:35:18;9.85;;;4.00;;
53646;SDS011;39550;52.230;5.194;2023-08-01T06:37:43;8.88;;;4.63;;
53646;SDS011;39550;52.230;5.194;2023-08-01T06:40:09;11.48;;;4.30;;
53646;SDS011;39550;52.230;5.194;2023-08-01T06:42:35;9.40;;;4.38;;
53646;SDS011;39550;52.230;5.194;2023-08-01T06:45:00;16.10;;;5.35;;
53646;SDS011;39550;52.230;5.194;2023-08-01T06:47:25;12.30;;;4.72;;
53646;SDS011;39550;52.230;5.194;2023-08-01T06:49:51;8.63;;;4.43;;
53646;SDS011;39550;52.230;5.194;2023-08-01T06:52:16;8.27;;;4.03;;
53646;SDS011;39550;52.230;5.194;2023-08-01T06:54:41;9.95;;;4.35;;
53646;SDS011;39550;52.230;5.194;2023-08-01T06:57:07;11.63;;;4.70;;
53646;SDS011;39550;52.230;5.194;2023-08-01T06:59:33;8.65;;;4.20;;
53646;SDS011;39550;52.230;5.194;2023-08-01T07:02:01;7.38;;;3.92;;
53646;SDS011;39550;52.230;5.194;2023-08-01T07:04:28;11.32;;;4.15;;
53646;SDS011;39550;52.230;5.194;2023-08-01T07:06:53;7.10;;;3.95;;
53646;SDS011;39550;52.230;5.194;2023-08-01T07:09:19;8.30;;;3.78;;
53646;SDS011;39550;52.230;5.194;2023-08-01T07:11:45;10.32;;;4.68;;
53646;SDS011;39550;52.230;5.194;2023-08-01T07:14:10;11.65;;;4.10;;
53646;SDS011;39550;52.230;5.194;2023-08-01T07:16:36;10.77;;;3.85;;
53646;SDS011;39550;52.230;5.194;2023-08-01T07:19:01;9.70;;;5.05;;
53646;SDS011;39550;52.230;5.194;2023-08-01T07:21:27;7.47;;;3.78;;
53646;SDS011;39550;52.230;5.194;2023-08-01T07:23:53;9.95;;;3.83;;
53646;SDS011;39550;52.230;5.194;2023-08-01T07:26:19;9.10;;;4.10;;
53646;SDS011;39550;52.230;5.194;2023-08-01T07:28:44;7.57;;;3.85;;
53646;SDS011;39550;52.230;5.194;2023-08-01T07:31:10;10.52;;;4.45;;
53646;SDS011;39550;52.230;5.194;2023-08-01T07:33:36;8.88;;;3.65;;
53646;SDS011;39550;52.230;5.194;2023-08-01T07:36:02;9.05;;;4.03;;
53646;SDS011;39550;52.230;5.194;2023-08-01T07:38:28;6.75;;;3.47;;
53646;SDS011;39550;52.230;5.194;2023-08-01T07:40:56;8.10;;;3.80;;
53646;SDS011;39550;52.230;5.194;2023-08-01T07:43:23;8.75;;;4.88;;
53646;SDS011;39550;52.230;5.194;2023-08-01T07:45:48;7.65;;;3.88;;
53646;SDS011;39550;52.230;5.194;2023-08-01T07:48:16;8.75;;;4.13;;
53646;SDS011;39550;52.230;5.194;2023-08-01T07:50:42;8.98;;;3.90;;
53646;SDS011;39550;52.230;5.194;2023-08-01T07:53:07;8.15;;;3.60;;
53646;SDS011;39550;52.230;5.194;2023-08-01T07:55:33;7.47;;;3.72;;
53646;SDS011;39550;52.230;5.194;2023-08-01T07:57:59;6.28;;;3.03;;
53646;SDS011;39550;52.230;5.194;2023-08-01T08:00:25;8.70;;;3.88;;
53646;SDS011;39550;52.230;5.194;2023-08-01T08:08:32;9.82;;;3.60;;
53646;SDS011;39550;52.230;5.194;2023-08-01T08:11:01;7.55;;;3.58;;
53646;SDS011;39550;52.230;5.194;2023-08-01T08:13:29;6.03;;;3.53;;
53646;SDS011;39550;52.230;5.194;2023-08-01T08:15:57;9.25;;;3.50;;
53646;SDS011;39550;52.230;5.194;2023-08-01T08:18:23;10.43;;;4.25;;
53646;SDS011;39550;52.230;5.194;2023-08-01T08:21:11;7.82;;;3.53;;
53646;SDS011;39550;52.230;5.194;2023-08-01T08:23:37;7.45;;;3.67;;
53646;SDS011;39550;52.230;5.194;2023-08-01T08:26:06;8.82;;;4.22;;
53646;SDS011;39550;52.230;5.194;2023-08-01T08:28:34;7.57;;;3.67;;
53646;SDS011;39550;52.230;5.194;2023-08-01T08:31:03;6.40;;;3.50;;
53646;SDS011;39550;52.230;5.194;2023-08-01T08:33:30;6.93;;;3.40;;
53646;SDS011;39550;52.230;5.194;2023-08-01T08:39:00;7.60;;;3.40;;
53646;SDS011;39550;52.230;5.194;2023-08-01T08:41:38;7.63;;;3.60;;
53646;SDS011;39550;52.230;5.194;2023-08-01T08:44:15;6.57;;;3.40;;
53646;SDS011;39550;52.230;5.194;2023-08-01T08:46:42;10.32;;;3.90;;
53646;SDS011;39550;52.230;5.194;2023-08-01T08:49:09;8.05;;;3.95;;
53646;SDS011;39550;52.230;5.194;2023-08-01T08:51:40;7.82;;;3.88;;
53646;SDS011;39550;52.230;5.194;2023-08-01T08:54:08;8.23;;;3.60;;
53646;SDS011;39550;52.230;5.194;2023-08-01T08:56:35;9.30;;;3.90;;
53646;SDS011;39550;52.230;5.194;2023-08-01T08:59:01;9.02;;;3.55;;
53646;SDS011;39550;52.230;5.194;2023-08-01T09:01:27;7.70;;;3.60;;
53646;SDS011;39550;52.230;5.194;2023-08-01T09:03:52;6.95;;;3.33;;
53646;SDS011;39550;52.230;5.194;2023-08-01T09:06:20;7.13;;;3.38;;
53646;SDS011;39550;52.230;5.194;2023-08-01T09:09:04;7.07;;;3.58;;
53646;SDS011;39550;52.230;5.194;2023-08-01T09:11:47;7.97;;;4.05;;
53646;SDS011;39550;52.230;5.194;2023-08-01T09:14:14;6.25;;;3.22;;
53646;SDS011;39550;52.230;5.194;2023-08-01T09:16:43;7.65;;;3.70;;
53646;SDS011;39550;52.230;5.194;2023-08-01T09:19:10;6.85;;;3.40;;
53646;SDS011;39550;52.230;5.194;2023-08-01T09:21:41;6.53;;;3.20;;
53646;SDS011;39550;52.230;5.194;2023-08-01T09:24:19;7.75;;;3.30;;
53646;SDS011;39550;52.230;5.194;2023-08-01T09:26:46;10.60;;;3.88;;
53646;SDS011;39550;52.230;5.194;2023-08-01T09:29:13;14.38;;;4.40;;
53646;SDS011;39550;52.230;5.194;2023-08-01T09:31:41;9.05;;;4.03;;
53646;SDS011;39550;52.230;5.194;2023-08-01T09:34:18;12.10;;;4.65;;
53646;SDS011;39550;52.230;5.194;2023-08-01T09:36:45;7.57;;;3.72;;
53646;SDS011;39550;52.230;5.194;2023-08-01T09:39:15;7.15;;;3.65;;
53646;SDS011;39550;52.230;5.194;2023-08-01T09:41:41;6.25;;;3.63;;
53646;SDS011;39550;52.230;5.194;2023-08-01T09:44:10;8.95;;;3.95;;
53646;SDS011;39550;52.230;5.194;2023-08-01T09:49:08;10.27;;;4.07;;
53646;SDS011;39550;52.230;5.194;2023-08-01T09:51:45;8.90;;;3.70;;
53646;SDS011;39550;52.230;5.194;2023-08-01T09:54:15;8.95;;;3.25;;
53646;SDS011;39550;52.230;5.194;2023-08-01T09:56:41;6.93;;;3.47;;
53646;SDS011;39550;52.230;5.194;2023-08-01T09:59:11;8.05;;;3.83;;
53646;SDS011;39550;52.230;5.194;2023-08-01T10:01:38;8.38;;;3.13;;
53646;SDS011;39550;52.230;5.194;2023-08-01T10:04:05;6.30;;;3.20;;
53646;SDS011;39550;52.230;5.194;2023-08-01T10:06:34;6.43;;;3.28;;
53646;SDS011;39550;52.230;5.194;2023-08-01T10:09:02;9.20;;;3.97;;
53646;SDS011;39550;52.230;5.194;2023-08-01T10:11:33;8.85;;;3.40;;
53646;SDS011;39550;52.230;5.194;2023-08-01T10:13:59;7.90;;;3.47;;
53646;SDS011;39550;52.230;5.194;2023-08-01T10:16:27;8.55;;;3.60;;
53646;SDS011;39550;52.230;5.194;2023-08-01T10:18:53;7.47;;;3.40;;
53646;SDS011;39550;52.230;5.194;2023-08-01T10:21:19;10.23;;;3.60;;
53646;SDS011;39550;52.230;5.194;2023-08-01T10:23:46;8.15;;;3.83;;
53646;SDS011;39550;52.230;5.194;2023-08-01T10:26:12;7.85;;;3.55;;
53646;SDS011;39550;52.230;5.194;2023-08-01T10:28:41;7.60;;;3.85;;
53646;SDS011;39550;52.230;5.194;2023-08-01T10:31:15;7.60;;;3.50;;
53646;SDS011;39550;52.230;5.194;2023-08-01T10:33:42;10.80;;;3.53;;
53646;SDS011;39550;52.230;5.194;2023-08-01T10:36:16;7.20;;;3.20;;
53646;SDS011;39550;52.230;5.194;2023-08-01T10:38:47;9.75;;;3.58;;
53646;SDS011;39550;52.230;5.194;2023-08-01T10:41:18;9.02;;;3.58;;
53646;SDS011;39550;52.230;5.194;2023-08-01T10:44:13;9.93;;;3.35;;
53646;SDS011;39550;52.230;5.194;2023-08-01T10:46:52;10.35;;;3.70;;
53646;SDS011;39550;52.230;5.194;2023-08-01T10:49:18;7.10;;;3.08;;
53646;SDS011;39550;52.230;5.194;2023-08-01T10:51:46;7.03;;;3.53;;
53646;SDS011;39550;52.230;5.194;2023-08-01T10:54:22;9.52;;;3.47;;
53646;SDS011;39550;52.230;5.194;2023-08-01T10:56:49;10.93;;;3.47;;
53646;SDS011;39550;52.230;5.194;2023-08-01T10:59:15;10.40;;;3.92;;
53646;SDS011;39550;52.230;5.194;2023-08-01T11:01:48;7.13;;;3.45;;
53646;SDS011;39550;52.230;5.194;2023-08-01T11:04:15;6.97;;;3.22;;
53646;SDS011;39550;52.230;5.194;2023-08-01T11:06:45;8.73;;;3.53;;
53646;SDS011;39550;52.230;5.194;2023-08-01T11:09:24;7.28;;;3.83;;
53646;SDS011;39550;52.230;5.194;2023-08-01T11:11:52;6.97;;;3.40;;
53646;SDS011;39550;52.230;5.194;2023-08-01T11:14:20;7.90;;;3.15;;
53646;SDS011;39550;52.230;5.194;2023-08-01T11:16:47;9.20;;;3.53;;
53646;SDS011;39550;52.230;5.194;2023-08-01T11:21:55;9.02;;;3.97;;
53646;SDS011;39550;52.230;5.194;2023-08-01T11:24:21;8.00;;;3.78;;
53646;SDS011;39550;52.230;5.194;2023-08-01T11:26:48;6.32;;;3.15;;
53646;SDS011;39550;52.230;5.194;2023-08-01T11:29:16;10.20;;;3.30;;
53646;SDS011;39550;52.230;5.194;2023-08-01T11:31:51;7.85;;;3.40;;
53646;SDS011;39550;52.230;5.194;2023-08-01T11:34:21;7.72;;;3.38;;
53646;SDS011;39550;52.230;5.194;2023-08-01T11:36:47;6.38;;;3.65;;
53646;SDS011;39550;52.230;5.194;2023-08-01T11:39:13;6.80;;;3.60;;
53646;SDS011;39550;52.230;5.194;2023-08-01T11:41:40;8.05;;;3.42;;
53646;SDS011;39550;52.230;5.194;2023-08-01T11:44:06;8.75;;;3.10;;
53646;SDS011;39550;52.230;5.194;2023-08-01T11:46:34;9.63;;;3.50;;
53646;SDS011;39550;52.230;5.194;2023-08-01T11:49:03;7.78;;;3.00;;
53646;SDS011;39550;52.230;5.194;2023-08-01T11:51:29;8.73;;;3.17;;
53646;SDS011;39550;52.230;5.194;2023-08-01T11:54:00;6.07;;;2.80;;
53646;SDS011;39550;52.230;5.194;2023-08-01T11:56:27;9.48;;;3.42;;
53646;SDS011;39550;52.230;5.194;2023-08-01T11:58:53;6.55;;;2.90;;
53646;SDS011;39550;52.230;5.194;2023-08-01T12:01:18;5.45;;;3.05;;
53646;SDS011;39550;52.230;5.194;2023-08-01T12:06:10;8.82;;;3.28;;
53646;SDS011;39550;52.230;5.194;2023-08-01T12:08:37;8.50;;;3.47;;
53646;SDS011;39550;52.230;5.194;2023-08-01T12:11:03;7.97;;;3.08;;
53646;SDS011;39550;52.230;5.194;2023-08-01T12:13:28;7.80;;;3.10;;
53646;SDS011;39550;52.230;5.194;2023-08-01T12:15:55;7.50;;;3.13;;
53646;SDS011;39550;52.230;5.194;2023-08-01T12:18:28;7.72;;;3.05;;
53646;SDS011;39550;52.230;5.194;2023-08-01T12:20:54;13.07;;;3.45;;
53646;SDS011;39550;52.230;5.194;2023-08-01T12:23:19;10.27;;;3.60;;
53646;SDS011;39550;52.230;5.194;2023-08-01T12:25:46;8.75;;;3.35;;
53646;SDS011;39550;52.230;5.194;2023-08-01T12:28:15;5.80;;;3.08;;
53646;SDS011;39550;52.230;5.194;2023-08-01T12:30:41;6.78;;;3.00;;
53646;SDS011;39550;52.230;5.194;2023-08-01T12:33:08;7.85;;;3.65;;
53646;SDS011;39550;52.230;5.194;2023-08-01T12:35:39;5.85;;;2.80;;
53646;SDS011;39550;52.230;5.194;2023-08-01T12:38:06;8.30;;;3.30;;
53646;SDS011;39550;52.230;5.194;2023-08-01T12:40:31;12.35;;;3.78;;
53646;SDS011;39550;52.230;5.194;2023-08-01T12:42:57;7.50;;;2.92;;
53646;SDS011;39550;52.230;5.194;2023-08-01T12:45:22;8.63;;;3.53;;
53646;SDS011;39550;52.230;5.194;2023-08-01T12:47:48;9.73;;;2.90;;
53646;SDS011;39550;52.230;5.194;2023-08-01T12:50:14;7.72;;;2.78;;
53646;SDS011;39550;52.230;5.194;2023-08-01T12:52:40;8.40;;;2.83;;
53646;SDS011;39550;52.230;5.194;2023-08-01T12:55:08;5.45;;;2.97;;
53646;SDS011;39550;52.230;5.194;2023-08-01T12:57:33;9.40;;;3.60;;
53646;SDS011;39550;52.230;5.194;2023-08-01T12:59:59;6.03;;;2.67;;
53646;SDS011;39550;52.230;5.194;2023-08-01T13:02:24;10.27;;;3.47;;
53646;SDS011;39550;52.230;5.194;2023-08-01T13:04:51;6.43;;;3.10;;
53646;SDS011;39550;52.230;5.194;2023-08-01T13:07:16;4.85;;;3.00;;
53646;SDS011;39550;52.230;5.194;2023-08-01T13:09:42;6.00;;;3.00;;
53646;SDS011;39550;52.230;5.194;2023-08-01T13:12:10;8.15;;;3.05;;
53646;SDS011;39550;52.230;5.194;2023-08-01T13:14:35;7.18;;;2.83;;
53646;SDS011;39550;52.230;5.194;2023-08-01T13:17:01;6.90;;;3.28;;
53646;SDS011;39550;52.230;5.194;2023-08-01T13:19:27;7.38;;;3.10;;
53646;SDS011;39550;52.230;5.194;2023-08-01T13:21:52;8.18;;;3.30;;
53646;SDS011;39550;52.230;5.194;2023-08-01T13:24:18;6.47;;;2.80;;
53646;SDS011;39550;52.230;5.194;2023-08-01T13:26:43;6.90;;;2.95;;
53646;SDS011;39550;52.230;5.194;2023-08-01T13:29:09;7.53;;;3.40;;
53646;SDS011;39550;52.230;5.194;2023-08-01T13:31:35;6.85;;;3.63;;
53646;SDS011;39550;52.230;5.194;2023-08-01T13:34:00;7.18;;;3.65;;
53646;SDS011;39550;52.230;5.194;2023-08-01T13:36:26;6.68;;;3.60;;
53646;SDS011;39550;52.230;5.194;2023-08-01T13:38:51;5.65;;;3.08;;
53646;SDS011;39550;52.230;5.194;2023-08-01T13:41:20;8.38;;;3.55;;
53646;SDS011;39550;52.230;5.194;2023-08-01T13:43:45;6.78;;;3.28;;
53646;SDS011;39550;52.230;5.194;2023-08-01T13:46:17;9.25;;;3.67;;
53646;SDS011;39550;52.230;5.194;2023-08-01T13:48:45;8.85;;;3.30;;
53646;SDS011;39550;52.230;5.194;2023-08-01T13:51:11;7.40;;;3.42;;
53646;SDS011;39550;52.230;5.194;2023-08-01T13:53:38;6.07;;;3.03;;
53646;SDS011;39550;52.230;5.194;2023-08-01T13:56:12;6.32;;;3.15;;
53646;SDS011;39550;52.230;5.194;2023-08-01T13:58:38;7.03;;;3.35;;
53646;SDS011;39550;52.230;5.194;2023-08-01T14:01:08;8.68;;;3.00;;
53646;SDS011;39550;52.230;5.194;2023-08-01T14:03:37;7.68;;;3.30;;
53646;SDS011;39550;52.230;5.194;2023-08-01T14:06:06;10.15;;;3.80;;
53646;SDS011;39550;52.230;5.194;2023-08-01T14:08:37;7.95;;;3.30;;
53646;SDS011;39550;52.230;5.194;2023-08-01T14:11:07;7.80;;;3.70;;
53646;SDS011;39550;52.230;5.194;2023-08-01T14:13:34;7.68;;;3.20;;
53646;SDS011;39550;52.230;5.194;2023-08-01T14:16:01;8.23;;;3.35;;
53646;SDS011;39550;52.230;5.194;2023-08-01T14:18:27;11.50;;;4.10;;
53646;SDS011;39550;52.230;5.194;2023-08-01T14:20:53;8.45;;;3.90;;
53646;SDS011;39550;52.230;5.194;2023-08-01T14:23:19;7.45;;;3.58;;
53646;SDS011;39550;52.230;5.194;2023-08-01T14:25:47;7.53;;;3.30;;
53646;SDS011;39550;52.230;5.194;2023-08-01T14:28:13;11.02;;;3.28;;
53646;SDS011;39550;52.230;5.194;2023-08-01T14:30:39;9.82;;;4.25;;
53646;SDS011;39550;52.230;5.194;2023-08-01T14:33:08;7.45;;;3.00;;
53646;SDS011;39550;52.230;5.194;2023-08-01T14:35:37;7.97;;;3.15;;
53646;SDS011;39550;52.230;5.194;2023-08-01T14:38:03;10.48;;;3.78;;
53646;SDS011;39550;52.230;5.194;2023-08-01T14:40:29;6.93;;;3.03;;
53646;SDS011;39550;52.230;5.194;2023-08-01T14:42:58;10.05;;;3.30;;
53646;SDS011;39550;52.230;5.194;2023-08-01T14:45:23;6.22;;;3.15;;
53646;SDS011;39550;52.230;5.194;2023-08-01T14:47:49;8.00;;;2.80;;
53646;SDS011;39550;52.230;5.194;2023-08-01T14:50:14;5.43;;;2.40;;
53646;SDS011;39550;52.230;5.194;2023-08-01T14:52:40;6.75;;;2.83;;
53646;SDS011;39550;52.230;5.194;2023-08-01T14:55:06;5.80;;;3.03;;
53646;SDS011;39550;52.230;5.194;2023-08-01T14:57:33;5.72;;;2.80;;
53646;SDS011;39550;52.230;5.194;2023-08-01T14:59:58;5.57;;;2.63;;
53646;SDS011;39550;52.230;5.194;2023-08-01T15:02:26;6.07;;;2.63;;
53646;SDS011;39550;52.230;5.194;2023-08-01T15:05:00;5.70;;;2.88;;
53646;SDS011;39550;52.230;5.194;2023-08-01T15:09:59;6.78;;;2.60;;
53646;SDS011;39550;52.230;5.194;2023-08-01T15:12:27;5.05;;;2.40;;
53646;SDS011;39550;52.230;5.194;2023-08-01T15:14:53;5.53;;;2.53;;
53646;SDS011;39550;52.230;5.194;2023-08-01T15:17:19;6.18;;;2.38;;
53646;SDS011;39550;52.230;5.194;2023-08-01T15:19:44;5.57;;;2.30;;
53646;SDS011;39550;52.230;5.194;2023-08-01T15:22:12;7.18;;;2.97;;
53646;SDS011;39550;52.230;5.194;2023-08-01T15:24:40;5.38;;;2.60;;